Time;durP1;ratioP1;P1;durP2;ratioP2;P2;SDS_P1;SDS_P2;PMS_P1;PMS_P2;Temp;Humidity;BMP_temperature;BMP_pressure;BME280_temperature;BME280_humidity;BME280_pressure;Samples;Min_cycle;Max_cycle;Signal;HPM_P1;HPM_P2
2022/08/06 00:02:23;;;;;;;4.57;3.58;;;24.60;70.70;;;;;;4844959;29;20057;-79
2022/08/06 00:04:57;;;;;;;5.63;3.42;;;24.60;71.40;;;;;;4860765;29;20460;-79
2022/08/06 00:07:25;;;;;;;4.93;3.35;;;24.50;70.50;;;;;;4850536;29;20069;-79
2022/08/06 00:09:56;;;;;;;7.85;3.40;;;24.50;71.20;;;;;;4838491;29;20057;-80
2022/08/06 00:12:33;;;;;;;5.85;3.50;;;24.50;73.20;;;;;;4834784;29;20076;-79
2022/08/06 00:15:05;;;;;;;5.78;3.47;;;24.40;70.40;;;;;;4841355;29;20053;-79
2022/08/06 00:17:43;;;;;;;7.57;3.17;;;24.40;71.90;;;;;;4822396;29;20058;-79
2022/08/06 00:20:12;;;;;;;;;;;24.40;71.60;;;;;;4827948;29;20084;-79
2022/08/06 00:22:59;;;;;;;6.32;3.30;;;24.40;71.50;;;;;;4852012;29;19924;-79
2022/08/06 00:25:28;;;;;;;5.43;3.22;;;24.30;70.70;;;;;;4842097;29;20045;-79
2022/08/06 00:28:02;;;;;;;6.95;3.13;;;24.30;71.80;;;;;;4841228;29;20057;-78
2022/08/06 00:30:35;;;;;;;6.10;3.05;;;24.30;71.60;;;;;;4837138;29;20310;-79
2022/08/06 00:33:03;;;;;;;4.85;2.80;;;24.30;72.30;;;;;;4857002;29;20049;-79
2022/08/06 00:35:31;;;;;;;4.78;3.22;;;24.20;72.90;;;;;;4841997;29;20580;-79
2022/08/06 00:37:59;;;;;;;6.95;3.33;;;24.20;73.60;;;;;;4827411;29;20049;-79
2022/08/06 00:40:29;;;;;;;4.68;2.95;;;24.20;71.90;;;;;;4835163;29;20070;-79
2022/08/06 00:43:02;;;;;;;3.90;3.20;;;24.20;71.80;;;;;;4857033;29;20041;-79
2022/08/06 00:45:35;;;;;;;6.40;3.20;;;24.10;71.40;;;;;;4836138;29;20054;-78
2022/08/06 00:48:08;;;;;;;5.90;3.30;;;24.10;72.40;;;;;;4820166;29;20046;-79
2022/08/06 00:50:55;;;;;;;6.55;3.13;;;24.10;73.40;;;;;;4846019;29;20408;-79
2022/08/06 00:53:22;;;;;;;5.03;3.30;;;24.10;72.70;;;;;;4840835;29;20049;-78
2022/08/06 00:56:01;;;;;;;4.97;3.50;;;24.10;73.80;;;;;;4858700;29;20117;-79
2022/08/06 00:58:35;;;;;;;4.60;2.90;;;24.00;73.40;;;;;;4855071;29;20145;-79
2022/08/06 01:01:08;;;;;;;7.80;2.88;;;24.00;73.60;;;;;;4821154;29;20077;-79
2022/08/06 01:03:47;;;;;;;6.63;3.05;;;24.00;73.90;;;;;;4837179;29;20098;-78
2022/08/06 01:06:22;;;;;;;5.60;3.40;;;24.00;74.80;;;;;;4834037;29;20058;-80
2022/08/06 01:09:09;;;;;;;4.75;3.40;;;23.90;74.10;;;;;;4820603;29;20078;-79
2022/08/06 01:11:40;;;;;;;6.40;3.40;;;23.90;72.90;;;;;;4841680;29;20061;-79
2022/08/06 01:14:07;;;;;;;4.28;2.97;;;23.90;73.80;;;;;;4843084;29;20053;-79
2022/08/06 01:16:57;;;;;;;4.68;2.90;;;23.90;73.00;;;;;;4836407;29;20144;-80
2022/08/06 01:19:59;;;;;;;9.43;3.60;;;23.80;73.70;;;;;;4844063;29;20497;-80
2022/08/06 01:23:10;;;;;;;8.85;3.60;;;23.80;74.50;;;;;;4828102;29;20053;-79
2022/08/06 01:26:12;;;;;;;6.00;3.03;;;23.80;73.00;;;;;;4859305;29;20054;-79
2022/08/06 01:29:05;;;;;;;4.35;2.90;;;23.80;72.30;;;;;;4855477;29;20042;-79
2022/08/06 01:31:51;;;;;;;5.80;2.95;;;23.70;72.20;;;;;;4833533;29;20073;-79
2022/08/06 01:34:30;;;;;;;5.97;3.20;;;23.70;72.20;;;;;;4860072;29;20049;-79
2022/08/06 01:37:22;;;;;;;4.22;2.90;;;23.70;71.60;;;;;;4844160;29;20068;-79
2022/08/06 01:39:58;;;;;;;6.47;2.92;;;23.70;71.90;;;;;;4844015;29;20053;-79
2022/08/06 01:42:30;;;;;;;4.82;2.90;;;23.60;71.80;;;;;;4840151;29;20049;-79
2022/08/06 01:45:06;;;;;;;7.38;2.97;;;23.70;71.70;;;;;;4860380;29;20042;-79
2022/08/06 01:47:38;;;;;;;5.95;2.88;;;23.60;71.50;;;;;;4861716;29;20220;-79
2022/08/06 01:50:26;;;;;;;7.22;3.30;;;23.60;73.60;;;;;;4828733;29;20102;-79
2022/08/06 01:52:57;;;;;;;5.70;2.92;;;23.60;73.00;;;;;;4821444;29;20045;-79
2022/08/06 01:55:41;;;;;;;5.55;2.33;;;23.60;72.40;;;;;;4858991;29;20408;-79
2022/08/06 01:58:30;;;;;;;5.20;2.70;;;23.60;72.60;;;;;;4846990;29;20508;-79
2022/08/06 02:01:06;;;;;;;6.43;2.95;;;23.50;72.10;;;;;;4844533;29;20544;-79
2022/08/06 02:03:44;;;;;;;6.40;3.13;;;23.50;71.50;;;;;;4820011;29;20045;-79
2022/08/06 02:06:35;;;;;;;4.03;2.45;;;23.50;73.90;;;;;;4837974;29;20069;-79
2022/08/06 02:09:13;;;;;;;3.53;2.70;;;23.50;72.20;;;;;;4845713;29;20072;-79
2022/08/06 02:11:59;;;;;;;3.25;2.67;;;23.50;72.80;;;;;;4859599;29;20065;-79
2022/08/06 02:14:38;;;;;;;5.25;2.83;;;23.40;72.90;;;;;;4837648;29;20061;-79
2022/08/06 02:17:12;;;;;;;3.60;2.72;;;23.40;72.70;;;;;;4855380;29;20053;-80
2022/08/06 02:19:48;;;;;;;7.38;3.03;;;23.40;72.80;;;;;;4839125;29;20106;-79
2022/08/06 02:22:38;;;;;;;6.25;3.00;;;23.30;72.40;;;;;;4845890;29;20144;-79
2022/08/06 02:25:12;;;;;;;4.70;2.60;;;23.30;71.40;;;;;;4832230;29;20082;-79
2022/08/06 02:27:56;;;;;;;7.50;2.83;;;23.30;71.30;;;;;;4822130;29;20046;-79
2022/08/06 02:30:31;;;;;;;3.17;2.50;;;23.30;71.90;;;;;;4856472;29;20050;-79
2022/08/06 02:33:03;;;;;;;6.20;3.13;;;23.30;72.20;;;;;;4824955;29;20048;-79
2022/08/06 02:35:36;;;;;;;5.72;2.97;;;23.20;72.80;;;;;;4840050;29;20050;-79
2022/08/06 02:38:24;;;;;;;3.30;2.60;;;23.20;71.40;;;;;;4820027;29;20640;-80
2022/08/06 02:41:05;;;;;;;7.13;2.60;;;23.20;70.90;;;;;;4836683;29;20060;-79
2022/08/06 02:43:37;;;;;;;6.07;2.83;;;23.10;71.40;;;;;;4844078;29;20445;-79
2022/08/06 02:46:13;;;;;;;5.85;2.80;;;23.10;72.00;;;;;;4842108;29;20046;-79
2022/08/06 02:48:58;;;;;;;5.15;2.53;;;23.10;71.90;;;;;;4829099;29;20539;-79
2022/08/06 02:52:00;;;;;;;7.07;2.90;;;23.10;71.60;;;;;;4836864;29;20140;-79
2022/08/06 02:54:56;;;;;;;4.38;3.28;;;23.10;72.10;;;;;;4841997;29;20048;-80
2022/08/06 02:57:37;;;;;;;4.00;2.78;;;23.10;72.00;;;;;;4833464;29;20053;-80
2022/08/06 03:00:19;;;;;;;7.10;2.78;;;23.10;73.40;;;;;;4819951;29;20046;-81
2022/08/06 03:03:00;;;;;;;7.07;3.42;;;23.00;74.40;;;;;;4845010;29;20417;-81
2022/08/06 03:05:29;;;;;;;6.47;2.80;;;23.00;73.20;;;;;;4856712;29;20049;-80
2022/08/06 03:08:21;;;;;;;5.93;2.83;;;22.90;72.30;;;;;;4839511;29;20098;-81
2022/08/06 03:10:55;;;;;;;6.05;3.13;;;22.90;72.40;;;;;;4855551;29;20050;-81
2022/08/06 03:13:24;;;;;;;5.60;2.70;;;22.90;73.70;;;;;;4845931;29;20077;-78
2022/08/06 03:15:59;;;;;;;5.80;3.10;;;22.90;73.00;;;;;;4864820;29;20055;-81
2022/08/06 03:18:29;;;;;;;4.70;3.30;;;22.90;73.00;;;;;;4846256;29;20284;-80
2022/08/06 03:20:58;;;;;;;6.80;3.00;;;22.90;73.20;;;;;;4860529;29;20107;-81
2022/08/06 03:23:28;;;;;;;5.38;3.50;;;22.90;72.80;;;;;;4843954;29;20049;-81
2022/08/06 03:25:57;;;;;;;4.18;2.88;;;22.90;75.00;;;;;;4853520;29;20577;-80
2022/08/06 03:28:33;;;;;;;4.85;3.22;;;22.80;74.00;;;;;;4861056;29;20045;-81
2022/08/06 03:31:03;;;;;;;6.00;3.25;;;22.80;72.80;;;;;;4849088;29;20508;-80
2022/08/06 03:33:32;;;;;;;5.78;3.17;;;22.80;73.00;;;;;;4833545;29;20137;-81
2022/08/06 03:36:21;;;;;;;4.85;3.00;;;22.80;74.60;;;;;;4847173;29;20539;-80
2022/08/06 03:39:05;;;;;;;5.03;3.00;;;22.80;75.50;;;;;;4873943;29;20105;-80
2022/08/06 03:41:36;;;;;;;6.63;3.40;;;22.80;75.80;;;;;;4839259;29;20136;-81
2022/08/06 03:44:07;;;;;;;5.40;3.25;;;22.80;75.10;;;;;;4853478;29;20052;-79
2022/08/06 03:46:55;;;;;;;4.28;2.88;;;22.70;74.80;;;;;;4859092;29;20053;-81
2022/08/06 03:49:42;;;;;;;7.05;3.05;;;22.80;74.50;;;;;;4876462;29;20135;-80
2022/08/06 03:52:16;;;;;;;7.75;3.70;;;22.70;74.50;;;;;;4838435;29;20060;-81
2022/08/06 03:54:52;;;;;;;3.88;2.90;;;22.70;74.60;;;;;;4845738;29;20045;-81
2022/08/06 03:57:24;;;;;;;4.57;3.00;;;22.70;74.20;;;;;;4861869;29;20073;-80
2022/08/06 04:00:10;;;;;;;4.72;3.13;;;22.70;74.90;;;;;;4843193;29;20097;-81
2022/08/06 04:02:43;;;;;;;5.63;3.17;;;22.70;75.30;;;;;;4854283;29;20077;-81
2022/08/06 04:05:19;;;;;;;7.53;3.50;;;22.70;74.90;;;;;;4855729;29;20053;-80
2022/08/06 04:07:56;;;;;;;5.82;3.60;;;22.70;74.80;;;;;;4860070;29;20044;-80
2022/08/06 04:10:27;;;;;;;5.53;3.05;;;22.70;74.80;;;;;;4873469;29;20056;-80
2022/08/06 04:13:04;;;;;;;5.35;3.70;;;22.70;75.60;;;;;;4854537;29;20049;-80
2022/08/06 04:15:53;;;;;;;6.72;3.35;;;22.70;74.90;;;;;;4851567;29;20052;-80
2022/08/06 04:18:28;;;;;;;5.97;3.30;;;22.70;75.70;;;;;;4873619;29;20425;-80
2022/08/06 04:21:00;;;;;;;7.10;3.33;;;22.80;74.90;;;;;;4860245;29;20541;-80
2022/08/06 04:23:46;;;;;;;5.15;3.35;;;22.80;76.00;;;;;;4862312;29;20056;-80
2022/08/06 04:26:17;;;;;;;7.55;3.45;;;22.80;76.50;;;;;;4849124;29;20057;-80
2022/08/06 04:28:48;;;;;;;5.13;3.28;;;22.80;75.60;;;;;;4855850;29;20085;-80
2022/08/06 04:31:27;;;;;;;7.68;2.95;;;22.80;75.40;;;;;;4837413;29;20077;-78
2022/08/06 04:34:20;;;;;;;3.97;2.92;;;22.90;76.50;;;;;;4859921;29;20496;-80
2022/08/06 04:36:54;;;;;;;4.57;3.15;;;22.90;77.50;;;;;;4858404;29;20053;-79
2022/08/06 04:39:22;;;;;;;5.55;3.33;;;22.90;78.40;;;;;;4854397;29;20045;-79
2022/08/06 04:42:04;;;;;;;6.80;3.63;;;23.00;78.00;;;;;;4854624;29;20188;-80
2022/08/06 04:44:34;;;;;;;7.45;3.30;;;23.10;79.00;;;;;;4849139;29;20504;-79
2022/08/06 04:47:02;;;;;;;7.85;2.90;;;23.10;76.10;;;;;;4858831;29;20516;-77
2022/08/06 04:49:29;;;;;;;4.88;3.35;;;23.20;78.00;;;;;;4845791;29;20060;-77
2022/08/06 04:52:28;;;;;;;6.57;3.22;;;23.20;77.50;;;;;;4861811;29;20127;-78
2022/08/06 04:55:19;;;;;;;6.88;3.03;;;23.30;77.30;;;;;;4871969;29;20393;-78
2022/08/06 04:58:00;;;;;;;5.25;2.85;;;23.30;78.30;;;;;;4840252;29;20503;-78
2022/08/06 05:00:46;;;;;;;5.15;2.97;;;23.40;76.70;;;;;;4837743;29;20059;-78
2022/08/06 05:03:33;;;;;;;5.57;3.13;;;23.40;76.40;;;;;;4859479;29;20045;-78
2022/08/06 05:06:29;;;;;;;4.95;3.40;;;23.40;76.60;;;;;;4858358;29;20049;-79
2022/08/06 05:09:04;;;;;;;5.22;3.13;;;23.60;74.20;;;;;;4850417;29;20064;-79
2022/08/06 05:11:53;;;;;;;;;;;23.60;74.10;;;;;;4841672;29;20105;-78
2022/08/06 05:14:39;;;;;;;5.20;2.90;;;23.70;73.60;;;;;;4856154;29;19940;-79
2022/08/06 05:17:10;;;;;;;6.03;3.08;;;23.80;73.00;;;;;;4840510;29;20053;-79
2022/08/06 05:19:43;;;;;;;6.50;3.35;;;23.80;72.40;;;;;;4844673;29;20053;-78
2022/08/06 05:22:16;;;;;;;5.53;2.65;;;23.90;73.30;;;;;;4850987;29;20057;-79
2022/08/06 05:25:05;;;;;;;4.32;2.95;;;24.10;72.80;;;;;;4859200;29;20548;-79
2022/08/06 05:27:43;;;;;;;4.05;3.33;;;24.20;72.50;;;;;;4848291;29;20057;-78
2022/08/06 05:30:30;;;;;;;5.88;2.88;;;24.30;73.60;;;;;;4862499;29;20434;-79
2022/08/06 05:32:58;;;;;;;4.20;2.90;;;24.40;72.60;;;;;;4844805;29;20045;-79
2022/08/06 05:35:28;;;;;;;4.50;2.80;;;24.50;70.80;;;;;;4858196;29;20053;-78
2022/08/06 05:38:08;;;;;;;8.10;2.63;;;24.60;71.70;;;;;;4835456;29;20049;-79
2022/08/06 05:40:37;;;;;;;4.70;2.90;;;24.80;70.40;;;;;;4859046;29;20057;-78
2022/08/06 05:43:23;;;;;;;6.90;2.83;;;24.90;66.70;;;;;;4852171;29;20455;-78
2022/08/06 05:46:21;;;;;;;4.60;2.72;;;25.10;68.10;;;;;;4856299;29;20136;-78
2022/08/06 05:49:08;;;;;;;8.65;2.97;;;25.20;67.20;;;;;;4854402;29;20564;-79
2022/08/06 05:52:22;;;;;;;6.32;2.60;;;25.30;67.60;;;;;;4841632;29;20131;-79
2022/08/06 05:55:06;;;;;;;5.85;3.10;;;25.50;67.00;;;;;;4878664;29;20049;-78
2022/08/06 05:57:49;;;;;;;4.63;2.50;;;25.70;65.50;;;;;;4880358;29;20125;-78
2022/08/06 06:00:24;;;;;;;4.93;2.95;;;25.80;64.90;;;;;;4847414;29;20054;-78
2022/08/06 06:03:15;;;;;;;3.33;2.17;;;25.90;63.10;;;;;;4854997;29;20045;-78
2022/08/06 06:05:53;;;;;;;4.37;2.60;;;26.00;62.20;;;;;;4864276;29;20132;-78
2022/08/06 06:08:41;;;;;;;5.38;2.67;;;26.10;63.30;;;;;;4862585;29;20300;-78
2022/08/06 06:11:27;;;;;;;5.68;2.70;;;26.30;64.90;;;;;;4853907;29;20053;-78
2022/08/06 06:14:41;;;;;;;4.43;2.97;;;26.40;65.90;;;;;;4879816;29;20045;-78
2022/08/06 06:17:31;;;;;;;8.25;2.92;;;26.60;66.20;;;;;;4851027;29;20568;-78
2022/08/06 06:20:29;;;;;;;3.75;2.75;;;26.70;66.00;;;;;;4850255;29;20508;-78
2022/08/06 06:23:35;;;;;;;5.63;2.85;;;26.80;65.60;;;;;;4862578;29;20037;-78
2022/08/06 06:26:11;;;;;;;5.03;2.95;;;27.00;65.70;;;;;;4876333;29;20053;-78
2022/08/06 06:29:21;;;;;;;5.25;2.88;;;27.00;61.20;;;;;;4860159;29;20105;-78
2022/08/06 06:32:18;;;;;;;3.42;2.63;;;27.10;61.40;;;;;;4849810;29;20181;-78
2022/08/06 06:35:24;;;;;;;6.80;3.00;;;27.30;60.90;;;;;;4872648;29;20088;-78
2022/08/06 06:38:25;;;;;;;5.60;2.83;;;27.40;60.70;;;;;;4851936;29;20101;-79
2022/08/06 06:40:58;;;;;;;4.47;2.88;;;27.50;59.40;;;;;;4861380;29;20049;-79
2022/08/06 06:44:02;;;;;;;4.82;3.00;;;27.60;59.50;;;;;;4841875;29;20041;-79
2022/08/06 06:46:46;;;;;;;4.32;2.60;;;27.70;59.10;;;;;;4876681;29;20053;-79
2022/08/06 06:49:44;;;;;;;6.43;3.00;;;27.80;60.80;;;;;;4840711;29;20096;-79
2022/08/06 06:52:38;;;;;;;5.05;2.80;;;28.00;59.90;;;;;;4852444;29;20113;-79
2022/08/06 06:55:32;;;;;;;5.32;3.15;;;28.10;58.70;;;;;;4846642;29;20378;-79
2022/08/06 06:58:42;;;;;;;3.95;3.15;;;28.20;58.20;;;;;;4852904;29;20036;-79
2022/08/06 07:01:15;;;;;;;5.13;3.53;;;28.40;59.20;;;;;;4877441;29;20049;-78
2022/08/06 07:04:00;;;;;;;4.68;3.33;;;28.50;59.10;;;;;;4877528;29;20497;-82
2022/08/06 07:06:30;;;;;;;7.60;3.22;;;28.50;59.80;;;;;;4834690;29;20049;-82
2022/08/06 07:09:17;;;;;;;3.47;3.05;;;28.60;59.00;;;;;;4843216;29;20061;-79
2022/08/06 07:12:05;;;;;;;6.25;3.03;;;28.80;58.00;;;;;;4854890;29;20064;-79
2022/08/06 07:14:54;;;;;;;7.07;3.55;;;28.80;57.20;;;;;;4846552;29;20045;-81
2022/08/06 07:17:29;;;;;;;4.18;2.70;;;28.90;57.10;;;;;;4861839;29;20053;-79
2022/08/06 07:20:28;;;;;;;3.53;3.10;;;28.90;57.80;;;;;;4860046;29;20256;-79
2022/08/06 07:23:00;;;;;;;5.90;3.22;;;29.00;58.30;;;;;;4840645;29;20055;-81
2022/08/06 07:25:50;;;;;;;3.92;2.97;;;29.00;58.30;;;;;;4861427;29;20042;-80
2022/08/06 07:28:26;;;;;;;5.50;3.45;;;29.20;58.50;;;;;;4853663;29;20501;-80
2022/08/06 07:31:03;;;;;;;5.90;3.47;;;29.30;58.20;;;;;;4860361;29;20132;-79
2022/08/06 07:33:38;;;;;;;8.52;3.25;;;29.40;58.40;;;;;;4852496;29;20549;-79
2022/08/06 07:36:31;;;;;;;6.00;3.80;;;29.40;58.20;;;;;;4854664;29;20049;-80
2022/08/06 07:39:10;;;;;;;4.95;3.72;;;29.40;58.00;;;;;;4841478;29;20543;-79
2022/08/06 07:41:41;;;;;;;3.20;2.83;;;29.60;57.60;;;;;;4855190;29;20508;-80
2022/08/06 07:44:34;;;;;;;6.63;3.65;;;29.60;54.20;;;;;;4854704;29;20585;-79
2022/08/06 07:47:27;;;;;;;6.32;2.97;;;29.70;53.10;;;;;;4849322;29;20106;-83
2022/08/06 07:50:12;;;;;;;3.88;3.00;;;29.80;53.30;;;;;;4860714;29;20299;-80
2022/08/06 07:52:40;;;;;;;5.03;2.63;;;30.00;54.10;;;;;;4844116;29;20076;-80
2022/08/06 07:55:12;;;;;;;5.05;3.38;;;30.00;53.30;;;;;;4863231;29;20079;-80
2022/08/06 07:57:42;;;;;;;5.72;2.97;;;30.10;53.10;;;;;;4876531;29;20049;-80
2022/08/06 08:00:22;;;;;;;5.85;3.20;;;30.20;54.00;;;;;;4857159;29;20514;-84
2022/08/06 08:08:34;;;;;;;5.22;3.13;;;30.10;54.60;;;;;;4860580;29;20049;-81
2022/08/06 08:11:02;;;;;;;3.78;2.90;;;30.20;55.00;;;;;;4844061;29;20058;-80
2022/08/06 08:13:36;;;;;;;3.88;3.00;;;30.30;54.10;;;;;;4862303;29;20049;-80
2022/08/06 08:16:11;;;;;;;5.80;2.95;;;30.40;53.60;;;;;;4858823;29;20567;-84
2022/08/06 08:18:47;;;;;;;3.35;2.50;;;30.40;52.70;;;;;;4859937;29;20468;-79
2022/08/06 08:21:18;;;;;;;;;;;30.60;52.20;;;;;;4863651;29;20057;-81
2022/08/06 08:23:48;;;;;;;3.80;2.65;;;30.60;52.90;;;;;;4859770;29;20371;-84
2022/08/06 08:26:21;;;;;;;4.68;2.53;;;30.70;52.20;;;;;;4846063;29;20045;-79
2022/08/06 08:28:51;;;;;;;3.42;2.83;;;30.70;51.00;;;;;;4856485;29;20077;-80
2022/08/06 08:31:18;;;;;;;5.30;2.65;;;30.70;51.80;;;;;;4849995;29;20458;-80
2022/08/06 08:33:52;;;;;;;3.22;2.80;;;30.80;51.40;;;;;;4854270;29;20053;-82
2022/08/06 08:36:23;;;;;;;6.50;3.10;;;30.70;51.30;;;;;;4860941;29;20403;-81
2022/08/06 08:38:57;;;;;;;3.95;2.85;;;30.70;51.70;;;;;;4839450;29;20049;-80
2022/08/06 08:41:31;;;;;;;4.68;2.53;;;30.90;51.40;;;;;;4860394;29;20152;-80
2022/08/06 08:44:24;;;;;;;4.63;2.95;;;30.70;50.30;;;;;;4874073;29;20049;-81
2022/08/06 08:46:57;;;;;;;3.08;2.67;;;31.00;50.90;;;;;;4861107;29;20152;-83
2022/08/06 08:49:50;;;;;;;4.60;2.70;;;31.00;51.80;;;;;;4838464;29;20059;-81
2022/08/06 08:52:28;;;;;;;3.40;2.72;;;31.10;51.30;;;;;;4873830;29;20049;-81
2022/08/06 08:55:02;;;;;;;5.10;2.47;;;31.10;51.10;;;;;;4858407;29;20231;-79
2022/08/06 08:57:52;;;;;;;6.90;3.33;;;31.20;50.70;;;;;;4840817;29;20041;-80
2022/08/06 09:00:40;;;;;;;6.25;3.28;;;31.30;50.70;;;;;;4835148;29;20060;-80
2022/08/06 09:03:16;;;;;;;12.68;3.75;;;31.30;50.60;;;;;;4859416;29;20056;-80
2022/08/06 09:05:44;;;;;;;7.97;3.58;;;31.40;51.00;;;;;;4859039;29;20042;-80
2022/08/06 09:08:16;;;;;;;2.78;2.50;;;31.40;50.70;;;;;;4868224;29;20053;-80
2022/08/06 09:11:04;;;;;;;3.45;2.72;;;31.50;49.90;;;;;;4845212;29;20508;-80
2022/08/06 09:13:38;;;;;;;3.58;2.35;;;31.50;49.90;;;;;;4841864;29;20102;-80
2022/08/06 09:16:17;;;;;;;3.85;2.13;;;31.60;49.80;;;;;;4837377;29;20049;-82
2022/08/06 09:18:59;;;;;;;3.10;2.13;;;31.60;48.90;;;;;;4870927;29;20057;-84
2022/08/06 09:21:28;;;;;;;2.35;2.15;;;31.50;48.50;;;;;;4833171;29;20041;-80
2022/08/06 09:23:57;;;;;;;3.15;2.08;;;31.60;49.30;;;;;;4857551;29;20053;-83
2022/08/06 09:26:25;;;;;;;4.10;2.63;;;31.60;48.80;;;;;;4833147;29;20046;-80
2022/08/06 09:29:22;;;;;;;3.88;2.33;;;31.60;48.70;;;;;;4853815;29;20081;-79
2022/08/06 09:32:06;;;;;;;4.22;2.58;;;31.70;48.10;;;;;;4872941;29;20053;-81
2022/08/06 09:34:42;;;;;;;3.10;2.25;;;32.00;49.20;;;;;;4851308;29;20098;-79
2022/08/06 09:37:29;;;;;;;7.32;2.53;;;32.00;48.80;;;;;;4858187;29;20055;-79
2022/08/06 09:40:19;;;;;;;3.45;1.77;;;32.10;48.00;;;;;;4849732;29;20041;-83
2022/08/06 09:42:49;;;;;;;6.32;1.90;;;32.10;47.80;;;;;;4846207;29;20058;-80
2022/08/06 09:45:19;;;;;;;3.63;1.87;;;32.10;47.60;;;;;;4858444;29;20052;-81
2022/08/06 09:48:10;;;;;;;3.88;2.10;;;32.20;47.10;;;;;;4855622;29;20045;-79
2022/08/06 09:50:45;;;;;;;2.70;2.10;;;32.20;47.10;;;;;;4860856;29;20045;-79
2022/08/06 09:53:14;;;;;;;7.25;2.45;;;32.20;47.40;;;;;;4874529;29;20041;-79
2022/08/06 09:55:48;;;;;;;3.20;2.10;;;32.10;47.60;;;;;;4852078;29;20050;-80
2022/08/06 09:58:27;;;;;;;2.38;1.92;;;32.20;47.20;;;;;;4860246;29;20132;-79
2022/08/06 10:01:15;;;;;;;3.00;2.03;;;32.30;48.00;;;;;;4851023;29;20124;-80
2022/08/06 10:03:50;;;;;;;2.60;2.40;;;32.40;48.00;;;;;;4851065;29;20050;-78
2022/08/06 10:06:53;;;;;;;4.55;2.30;;;32.40;48.40;;;;;;4857033;29;20718;-79
2022/08/06 10:09:22;;;;;;;3.45;2.30;;;32.30;48.50;;;;;;4855954;29;20054;-81
2022/08/06 10:12:21;;;;;;;6.03;2.40;;;32.40;48.30;;;;;;4838188;29;20446;-79
2022/08/06 10:14:53;;;;;;;3.92;2.53;;;32.50;47.10;;;;;;4859167;29;20053;-79
2022/08/06 10:17:23;;;;;;;4.05;2.35;;;32.30;47.40;;;;;;4850087;29;20512;-80
2022/08/06 10:20:10;;;;;;;5.22;2.15;;;32.40;47.50;;;;;;4875377;29;20041;-79
2022/08/06 10:22:56;;;;;;;3.83;1.98;;;32.40;46.80;;;;;;4837819;29;20081;-81
2022/08/06 10:25:25;;;;;;;5.40;2.97;;;32.60;46.70;;;;;;4851579;29;20046;-80
2022/08/06 10:27:58;;;;;;;3.97;2.78;;;32.60;46.70;;;;;;4850330;29;20441;-80
2022/08/06 10:30:28;;;;;;;3.00;2.20;;;32.50;47.30;;;;;;4870887;29;20046;-84
2022/08/06 10:33:06;;;;;;;2.80;2.42;;;32.60;46.70;;;;;;4833579;29;20748;-80
2022/08/06 10:35:51;;;;;;;2.40;2.20;;;32.70;46.80;;;;;;4836336;29;20081;-79
2022/08/06 10:38:23;;;;;;;3.97;2.92;;;32.90;46.70;;;;;;4858741;29;20049;-80
2022/08/06 10:41:07;;;;;;;3.15;2.30;;;32.90;46.80;;;;;;4853115;29;20052;-80
2022/08/06 10:43:55;;;;;;;2.50;2.17;;;32.90;47.20;;;;;;4852042;29;20049;-80
2022/08/06 10:46:23;;;;;;;3.90;2.60;;;32.90;45.70;;;;;;4836572;29;20050;-79
2022/08/06 10:48:53;;;;;;;3.45;2.10;;;32.80;46.60;;;;;;4842458;29;20390;-79
2022/08/06 10:51:28;;;;;;;2.78;2.50;;;32.80;47.40;;;;;;4859397;29;20049;-81
2022/08/06 10:54:16;;;;;;;7.95;2.60;;;32.70;46.20;;;;;;4842261;29;20394;-82
2022/08/06 10:56:48;;;;;;;3.15;2.33;;;32.80;46.10;;;;;;4844281;29;20089;-83
2022/08/06 10:59:16;;;;;;;3.25;1.92;;;33.00;45.60;;;;;;4872545;29;20080;-79
2022/08/06 11:02:03;;;;;;;5.00;2.10;;;32.90;46.10;;;;;;4859571;29;20084;-81
2022/08/06 11:04:40;;;;;;;3.85;2.25;;;32.90;46.70;;;;;;4857857;29;20058;-79
2022/08/06 11:07:33;;;;;;;3.72;2.53;;;33.00;45.70;;;;;;4829756;29;20053;-81
2022/08/06 11:10:45;;;;;;;2.70;2.05;;;33.10;46.30;;;;;;4848328;29;20140;-79
2022/08/06 11:13:23;;;;;;;5.25;2.40;;;33.40;44.40;;;;;;4843660;29;20053;-80
2022/08/06 11:16:26;;;;;;;2.28;2.08;;;33.40;45.20;;;;;;4872711;29;20052;-79
2022/08/06 11:19:08;;;;;;;3.20;2.10;;;33.40;45.90;;;;;;4858686;29;20509;-79
2022/08/06 11:21:46;;;;;;;;;;;33.30;45.00;;;;;;4833569;29;20055;-78
2022/08/06 11:24:28;;;;;;;2.95;1.80;;;33.40;45.10;;;;;;4860323;29;19924;-81
2022/08/06 11:26:59;;;;;;;3.65;2.03;;;33.40;45.40;;;;;;4836733;29;20045;-81
2022/08/06 11:30:12;;;;;;;3.40;1.80;;;33.50;44.60;;;;;;4830257;29;20510;-79
2022/08/06 11:32:58;;;;;;;4.32;2.40;;;33.40;44.10;;;;;;4842881;29;20056;-79
2022/08/06 11:35:34;;;;;;;2.20;2.00;;;33.40;44.70;;;;;;4840166;29;20077;-80
2022/08/06 11:38:42;;;;;;;2.47;1.92;;;33.60;44.10;;;;;;4856572;29;20552;-79
2022/08/06 11:41:29;;;;;;;3.08;1.90;;;33.50;43.30;;;;;;4842374;29;20056;-78
2022/08/06 11:44:27;;;;;;;3.88;2.50;;;33.40;44.00;;;;;;4856318;29;20042;-80
2022/08/06 11:47:23;;;;;;;4.82;2.05;;;33.70;45.10;;;;;;4842694;29;20045;-79
2022/08/06 11:50:22;;;;;;;3.42;2.00;;;33.80;43.50;;;;;;4843304;29;20555;-84
2022/08/06 11:52:53;;;;;;;2.03;1.92;;;33.80;43.50;;;;;;4856730;29;20114;-79
2022/08/06 11:55:22;;;;;;;1.95;1.83;;;33.60;43.30;;;;;;4852622;29;20041;-82
2022/08/06 11:58:14;;;;;;;4.63;1.77;;;33.40;43.10;;;;;;4857908;29;20061;-81
2022/08/06 12:01:00;;;;;;;1.85;1.60;;;33.60;42.20;;;;;;4846494;29;20114;-80
2022/08/06 12:03:47;;;;;;;2.50;1.88;;;33.60;42.40;;;;;;4852257;29;20428;-79
2022/08/06 12:06:23;;;;;;;3.83;2.28;;;33.50;43.00;;;;;;4856029;29;20556;-80
2022/08/06 12:09:12;;;;;;;3.30;1.70;;;33.70;42.70;;;;;;4853891;29;20045;-81
2022/08/06 12:12:23;;;;;;;2.45;1.85;;;33.90;43.00;;;;;;4854095;29;20053;-80
2022/08/06 12:14:53;;;;;;;2.75;1.73;;;34.10;43.00;;;;;;4834114;29;20070;-79
2022/08/06 12:17:26;;;;;;;10.93;2.13;;;33.80;42.70;;;;;;4855307;29;20137;-80
2022/08/06 12:20:12;;;;;;;3.65;2.05;;;33.80;43.50;;;;;;4853996;29;20065;-79
2022/08/06 12:23:00;;;;;;;3.25;1.95;;;33.80;44.20;;;;;;4843760;29;20204;-79
2022/08/06 12:25:38;;;;;;;3.10;2.30;;;33.80;44.80;;;;;;4848684;29;20433;-81
2022/08/06 12:28:10;;;;;;;2.58;2.38;;;33.90;44.50;;;;;;4850951;29;20049;-79
2022/08/06 12:30:41;;;;;;;3.15;1.92;;;33.80;44.90;;;;;;4857624;29;20458;-79
2022/08/06 12:33:15;;;;;;;2.50;2.10;;;34.10;43.50;;;;;;4849590;29;20072;-82
2022/08/06 12:35:53;;;;;;;3.22;2.30;;;34.10;43.40;;;;;;4869930;29;20054;-80
2022/08/06 12:38:25;;;;;;;3.58;2.28;;;34.00;43.90;;;;;;4855185;29;20146;-79
2022/08/06 12:40:55;;;;;;;2.38;2.17;;;33.90;43.60;;;;;;4853975;29;20141;-81
2022/08/06 12:43:23;;;;;;;2.58;2.38;;;33.80;44.20;;;;;;4857016;29;20057;-79
2022/08/06 12:46:11;;;;;;;3.85;2.50;;;34.00;44.10;;;;;;4855083;29;20049;-79
2022/08/06 12:48:50;;;;;;;3.03;2.30;;;34.00;44.70;;;;;;4852563;29;20049;-79
2022/08/06 12:51:19;;;;;;;3.78;2.80;;;33.90;44.80;;;;;;4856614;29;20046;-79
2022/08/06 12:53:59;;;;;;;7.93;3.45;;;34.00;46.10;;;;;;4853942;29;20490;-86
2022/08/06 12:56:30;;;;;;;6.88;4.68;;;34.10;48.40;;;;;;4831548;29;20050;-83
2022/08/06 12:59:05;;;;;;;4.32;3.63;;;34.10;50.40;;;;;;4842417;29;20046;-85
2022/08/06 13:01:52;;;;;;;7.38;4.00;;;34.00;50.10;;;;;;4856345;29;20090;-80
2022/08/06 13:04:44;;;;;;;6.13;4.03;;;34.10;50.70;;;;;;4852729;29;20074;-85
2022/08/06 13:07:15;;;;;;;6.82;3.90;;;34.20;50.90;;;;;;4854374;29;20065;-84
2022/08/06 13:10:09;;;;;;;6.15;4.45;;;34.20;51.20;;;;;;4850885;29;20050;-80
2022/08/06 13:13:04;;;;;;;6.13;4.22;;;34.20;51.10;;;;;;4835003;29;20046;-80
2022/08/06 13:16:03;;;;;;;7.28;4.60;;;34.20;51.30;;;;;;4858405;29;20128;-82
2022/08/06 13:18:33;;;;;;;9.20;5.35;;;33.90;52.60;;;;;;4833002;29;20075;-88
2022/08/06 13:21:23;;;;;;;10.35;5.05;;;33.80;52.80;;;;;;4842025;29;20508;-83
2022/08/06 13:24:12;;;;;;;13.45;5.43;;;33.90;53.30;;;;;;4857223;29;20054;-79
2022/08/06 13:26:53;;;;;;;15.48;6.80;;;33.80;53.50;;;;;;4837130;29;20046;-85
2022/08/06 13:29:23;;;;;;;6.37;5.10;;;33.80;53.30;;;;;;4871926;29;20046;-82
2022/08/06 13:32:11;;;;;;;9.00;5.57;;;33.70;53.50;;;;;;4858148;29;20624;-81
2022/08/06 13:35:00;;;;;;;13.43;6.28;;;33.80;54.00;;;;;;4854611;29;20046;-85
2022/08/06 13:37:51;;;;;;;15.27;5.53;;;33.80;53.10;;;;;;4856452;29;20053;-84
2022/08/06 13:40:47;;;;;;;8.65;5.65;;;33.80;53.60;;;;;;4832761;29;20421;-84
2022/08/06 13:43:43;;;;;;;8.63;5.50;;;33.80;53.40;;;;;;4837316;29;20064;-82
2022/08/06 13:46:27;;;;;;;7.57;5.57;;;33.60;53.60;;;;;;4854831;29;20106;-84
2022/08/06 13:49:00;;;;;;;9.55;5.97;;;33.60;54.10;;;;;;4852556;29;20054;-87
2022/08/06 13:51:40;;;;;;;8.05;5.30;;;33.50;53.70;;;;;;4857347;29;20141;-86
2022/08/06 13:54:19;;;;;;;6.70;4.95;;;33.70;53.30;;;;;;4831450;29;20042;-88
2022/08/06 13:56:48;;;;;;;6.18;5.20;;;33.70;53.70;;;;;;4832745;29;20098;-84
2022/08/06 13:59:20;;;;;;;6.50;5.03;;;33.70;53.80;;;;;;4832786;29;20102;-82
2022/08/06 14:02:07;;;;;;;10.57;5.95;;;33.80;53.90;;;;;;4833522;29;20133;-83
2022/08/06 14:04:35;;;;;;;7.07;4.68;;;34.00;53.80;;;;;;4851972;29;20042;-85